sensor_id;sensor_type;location;lat;lon;timestamp;P1;durP1;ratioP1;P2;durP2;ratioP2
18138;SDS011;9195;53.176;9.486;2022-08-19T00:01:52;13.00;;;12.40;;
18138;SDS011;9195;53.176;9.486;2022-08-19T00:04:21;12.63;;;12.13;;
18138;SDS011;9195;53.176;9.486;2022-08-19T00:06:49;13.03;;;12.43;;
18138;SDS011;9195;53.176;9.486;2022-08-19T00:09:15;12.90;;;12.30;;
18138;SDS011;9195;53.176;9.486;2022-08-19T00:11:42;13.10;;;12.50;;
18138;SDS011;9195;53.176;9.486;2022-08-19T00:14:10;13.23;;;12.63;;
18138;SDS011;9195;53.176;9.486;2022-08-19T00:16:37;12.33;;;11.83;;
18138;SDS011;9195;53.176;9.486;2022-08-19T00:19:04;12.40;;;11.90;;
18138;SDS011;9195;53.176;9.486;2022-08-19T00:21:30;12.27;;;11.77;;
18138;SDS011;9195;53.176;9.486;2022-08-19T00:23:56;12.13;;;11.63;;
18138;SDS011;9195;53.176;9.486;2022-08-19T00:26:25;12.50;;;12.00;;
18138;SDS011;9195;53.176;9.486;2022-08-19T00:28:51;12.00;;;11.50;;
18138;SDS011;9195;53.176;9.486;2022-08-19T00:31:17;12.73;;;12.23;;
18138;SDS011;9195;53.176;9.486;2022-08-19T00:33:42;12.70;;;12.20;;
18138;SDS011;9195;53.176;9.486;2022-08-19T00:36:09;12.80;;;12.27;;
18138;SDS011;9195;53.176;9.486;2022-08-19T00:38:36;13.00;;;12.40;;
18138;SDS011;9195;53.176;9.486;2022-08-19T00:41:07;12.90;;;12.30;;
18138;SDS011;9195;53.176;9.486;2022-08-19T00:43:34;12.20;;;11.70;;
18138;SDS011;9195;53.176;9.486;2022-08-19T00:46:03;12.70;;;12.20;;
18138;SDS011;9195;53.176;9.486;2022-08-19T00:48:29;12.60;;;12.10;;
18138;SDS011;9195;53.176;9.486;2022-08-19T00:50:56;12.70;;;12.17;;
18138;SDS011;9195;53.176;9.486;2022-08-19T00:53:24;13.00;;;12.40;;
18138;SDS011;9195;53.176;9.486;2022-08-19T00:55:52;12.80;;;12.27;;
18138;SDS011;9195;53.176;9.486;2022-08-19T00:58:22;12.30;;;11.80;;
18138;SDS011;9195;53.176;9.486;2022-08-19T01:00:52;13.00;;;12.40;;
18138;SDS011;9195;53.176;9.486;2022-08-19T01:03:19;12.17;;;11.67;;
18138;SDS011;9195;53.176;9.486;2022-08-19T01:05:46;12.27;;;11.77;;
18138;SDS011;9195;53.176;9.486;2022-08-19T01:08:13;12.53;;;12.03;;
18138;SDS011;9195;53.176;9.486;2022-08-19T01:10:42;12.53;;;12.03;;
18138;SDS011;9195;53.176;9.486;2022-08-19T01:13:09;12.93;;;12.33;;
18138;SDS011;9195;53.176;9.486;2022-08-19T01:15:44;12.40;;;11.90;;
18138;SDS011;9195;53.176;9.486;2022-08-19T01:18:13;12.47;;;11.97;;
18138;SDS011;9195;53.176;9.486;2022-08-19T01:20:43;12.50;;;12.00;;
18138;SDS011;9195;53.176;9.486;2022-08-19T01:23:10;12.23;;;11.73;;
18138;SDS011;9195;53.176;9.486;2022-08-19T01:25:41;12.10;;;11.60;;
18138;SDS011;9195;53.176;9.486;2022-08-19T01:28:19;12.10;;;11.60;;
18138;SDS011;9195;53.176;9.486;2022-08-19T01:30:47;12.47;;;11.97;;
18138;SDS011;9195;53.176;9.486;2022-08-19T01:33:13;12.70;;;12.20;;
18138;SDS011;9195;53.176;9.486;2022-08-19T01:35:39;12.57;;;12.07;;
18138;SDS011;9195;53.176;9.486;2022-08-19T01:38:07;12.93;;;12.33;;
18138;SDS011;9195;53.176;9.486;2022-08-19T01:40:36;12.70;;;12.17;;
18138;SDS011;9195;53.176;9.486;2022-08-19T01:43:04;12.57;;;12.07;;
18138;SDS011;9195;53.176;9.486;2022-08-19T01:45:31;12.43;;;11.93;;
18138;SDS011;9195;53.176;9.486;2022-08-19T01:47:59;11.77;;;11.27;;
18138;SDS011;9195;53.176;9.486;2022-08-19T01:50:26;11.90;;;11.40;;
18138;SDS011;9195;53.176;9.486;2022-08-19T01:52:52;12.10;;;11.60;;
18138;SDS011;9195;53.176;9.486;2022-08-19T01:55:19;12.27;;;11.77;;
18138;SDS011;9195;53.176;9.486;2022-08-19T01:57:47;12.10;;;11.60;;
18138;SDS011;9195;53.176;9.486;2022-08-19T02:00:16;12.20;;;11.70;;
18138;SDS011;9195;53.176;9.486;2022-08-19T02:02:43;11.93;;;11.43;;
18138;SDS011;9195;53.176;9.486;2022-08-19T02:05:08;11.73;;;11.23;;
18138;SDS011;9195;53.176;9.486;2022-08-19T02:07:35;11.90;;;11.40;;
18138;SDS011;9195;53.176;9.486;2022-08-19T02:10:05;11.83;;;11.33;;
18138;SDS011;9195;53.176;9.486;2022-08-19T02:12:33;12.00;;;11.50;;
18138;SDS011;9195;53.176;9.486;2022-08-19T02:14:59;12.10;;;11.60;;
18138;SDS011;9195;53.176;9.486;2022-08-19T02:17:25;11.47;;;10.97;;
18138;SDS011;9195;53.176;9.486;2022-08-19T02:19:53;11.67;;;11.17;;
18138;SDS011;9195;53.176;9.486;2022-08-19T02:22:18;11.70;;;11.20;;
18138;SDS011;9195;53.176;9.486;2022-08-19T02:24:44;11.67;;;11.17;;
18138;SDS011;9195;53.176;9.486;2022-08-19T02:27:10;11.73;;;11.23;;
18138;SDS011;9195;53.176;9.486;2022-08-19T02:29:36;12.07;;;11.57;;
18138;SDS011;9195;53.176;9.486;2022-08-19T02:32:01;11.73;;;11.23;;
18138;SDS011;9195;53.176;9.486;2022-08-19T02:34:29;11.73;;;11.23;;
18138;SDS011;9195;53.176;9.486;2022-08-19T02:36:54;11.60;;;11.10;;
18138;SDS011;9195;53.176;9.486;2022-08-19T02:39:20;11.60;;;11.10;;
18138;SDS011;9195;53.176;9.486;2022-08-19T02:41:45;11.97;;;11.47;;
18138;SDS011;9195;53.176;9.486;2022-08-19T02:44:11;11.80;;;11.30;;
18138;SDS011;9195;53.176;9.486;2022-08-19T02:46:37;12.00;;;11.50;;
18138;SDS011;9195;53.176;9.486;2022-08-19T02:49:04;12.13;;;11.63;;
18138;SDS011;9195;53.176;9.486;2022-08-19T02:51:34;11.80;;;11.30;;
18138;SDS011;9195;53.176;9.486;2022-08-19T02:54:06;12.00;;;11.50;;
18138;SDS011;9195;53.176;9.486;2022-08-19T02:56:35;12.10;;;11.60;;
18138;SDS011;9195;53.176;9.486;2022-08-19T02:59:02;11.60;;;11.10;;
18138;SDS011;9195;53.176;9.486;2022-08-19T03:01:33;11.70;;;11.20;;
18138;SDS011;9195;53.176;9.486;2022-08-19T03:04:00;10.70;;;10.30;;
18138;SDS011;9195;53.176;9.486;2022-08-19T03:06:29;11.00;;;10.50;;
18138;SDS011;9195;53.176;9.486;2022-08-19T03:08:55;10.87;;;10.47;;
18138;SDS011;9195;53.176;9.486;2022-08-19T03:11:29;11.40;;;10.90;;
18138;SDS011;9195;53.176;9.486;2022-08-19T03:13:56;11.30;;;10.80;;
18138;SDS011;9195;53.176;9.486;2022-08-19T03:16:24;11.30;;;10.80;;
18138;SDS011;9195;53.176;9.486;2022-08-19T03:18:53;11.47;;;10.97;;
18138;SDS011;9195;53.176;9.486;2022-08-19T03:21:21;11.40;;;10.90;;
18138;SDS011;9195;53.176;9.486;2022-08-19T03:23:49;11.13;;;10.63;;
18138;SDS011;9195;53.176;9.486;2022-08-19T03:26:15;11.27;;;10.77;;
18138;SDS011;9195;53.176;9.486;2022-08-19T03:28:42;11.60;;;11.10;;
18138;SDS011;9195;53.176;9.486;2022-08-19T03:31:10;11.63;;;11.13;;
18138;SDS011;9195;53.176;9.486;2022-08-19T03:33:39;11.43;;;10.93;;
18138;SDS011;9195;53.176;9.486;2022-08-19T03:36:24;10.73;;;10.33;;
18138;SDS011;9195;53.176;9.486;2022-08-19T03:38:52;11.33;;;10.83;;
18138;SDS011;9195;53.176;9.486;2022-08-19T03:41:24;11.60;;;11.10;;
18138;SDS011;9195;53.176;9.486;2022-08-19T03:43:52;11.67;;;11.17;;
18138;SDS011;9195;53.176;9.486;2022-08-19T03:46:20;11.73;;;11.23;;
18138;SDS011;9195;53.176;9.486;2022-08-19T03:48:51;11.80;;;11.30;;
18138;SDS011;9195;53.176;9.486;2022-08-19T03:51:19;11.83;;;11.33;;
18138;SDS011;9195;53.176;9.486;2022-08-19T03:53:47;11.97;;;11.47;;
18138;SDS011;9195;53.176;9.486;2022-08-19T03:56:13;11.57;;;11.07;;
18138;SDS011;9195;53.176;9.486;2022-08-19T03:58:40;11.63;;;11.13;;
18138;SDS011;9195;53.176;9.486;2022-08-19T04:01:10;11.73;;;11.23;;
18138;SDS011;9195;53.176;9.486;2022-08-19T04:03:38;11.83;;;11.33;;
18138;SDS011;9195;53.176;9.486;2022-08-19T04:06:15;11.73;;;11.23;;
18138;SDS011;9195;53.176;9.486;2022-08-19T04:08:46;12.10;;;11.60;;
18138;SDS011;9195;53.176;9.486;2022-08-19T04:11:15;11.83;;;11.33;;
18138;SDS011;9195;53.176;9.486;2022-08-19T04:13:45;12.27;;;11.77;;
18138;SDS011;9195;53.176;9.486;2022-08-19T04:16:11;12.30;;;11.80;;
18138;SDS011;9195;53.176;9.486;2022-08-19T04:18:37;12.13;;;11.63;;
18138;SDS011;9195;53.176;9.486;2022-08-19T04:21:04;12.40;;;11.90;;
18138;SDS011;9195;53.176;9.486;2022-08-19T04:23:31;12.50;;;12.00;;
18138;SDS011;9195;53.176;9.486;2022-08-19T04:25:57;12.10;;;11.60;;
18138;SDS011;9195;53.176;9.486;2022-08-19T04:28:23;12.33;;;11.83;;
18138;SDS011;9195;53.176;9.486;2022-08-19T04:30:50;12.03;;;11.53;;
18138;SDS011;9195;53.176;9.486;2022-08-19T04:33:20;11.70;;;11.20;;
18138;SDS011;9195;53.176;9.486;2022-08-19T04:35:48;11.60;;;11.10;;
18138;SDS011;9195;53.176;9.486;2022-08-19T04:38:15;11.67;;;11.17;;
18138;SDS011;9195;53.176;9.486;2022-08-19T04:40:44;11.40;;;10.90;;
18138;SDS011;9195;53.176;9.486;2022-08-19T04:43:30;11.33;;;10.83;;
18138;SDS011;9195;53.176;9.486;2022-08-19T04:45:56;11.23;;;10.73;;
18138;SDS011;9195;53.176;9.486;2022-08-19T04:48:22;11.10;;;10.60;;
18138;SDS011;9195;53.176;9.486;2022-08-19T04:50:55;11.10;;;10.60;;
18138;SDS011;9195;53.176;9.486;2022-08-19T04:55:51;11.30;;;10.80;;
18138;SDS011;9195;53.176;9.486;2022-08-19T04:58:17;11.13;;;10.63;;
18138;SDS011;9195;53.176;9.486;2022-08-19T05:00:43;11.73;;;11.23;;
18138;SDS011;9195;53.176;9.486;2022-08-19T05:03:08;11.70;;;11.20;;
18138;SDS011;9195;53.176;9.486;2022-08-19T05:05:38;11.73;;;11.23;;
18138;SDS011;9195;53.176;9.486;2022-08-19T05:08:06;11.83;;;11.33;;
18138;SDS011;9195;53.176;9.486;2022-08-19T05:10:34;11.87;;;11.37;;
18138;SDS011;9195;53.176;9.486;2022-08-19T05:13:01;11.93;;;11.43;;
18138;SDS011;9195;53.176;9.486;2022-08-19T05:15:27;12.00;;;11.50;;
18138;SDS011;9195;53.176;9.486;2022-08-19T05:17:52;12.10;;;11.60;;
18138;SDS011;9195;53.176;9.486;2022-08-19T05:20:39;12.00;;;11.50;;
18138;SDS011;9195;53.176;9.486;2022-08-19T05:23:23;12.40;;;11.90;;
18138;SDS011;9195;53.176;9.486;2022-08-19T05:25:49;12.60;;;12.10;;
18138;SDS011;9195;53.176;9.486;2022-08-19T05:28:16;12.80;;;12.20;;
18138;SDS011;9195;53.176;9.486;2022-08-19T05:30:43;12.40;;;11.90;;
18138;SDS011;9195;53.176;9.486;2022-08-19T05:33:10;13.07;;;12.47;;
18138;SDS011;9195;53.176;9.486;2022-08-19T05:35:36;12.60;;;12.10;;
18138;SDS011;9195;53.176;9.486;2022-08-19T05:38:03;12.40;;;11.90;;
18138;SDS011;9195;53.176;9.486;2022-08-19T05:40:29;12.50;;;12.00;;
18138;SDS011;9195;53.176;9.486;2022-08-19T05:42:55;12.30;;;11.80;;
18138;SDS011;9195;53.176;9.486;2022-08-19T05:45:20;11.73;;;11.23;;
18138;SDS011;9195;53.176;9.486;2022-08-19T05:47:46;11.67;;;11.17;;
18138;SDS011;9195;53.176;9.486;2022-08-19T05:50:12;12.33;;;11.83;;
18138;SDS011;9195;53.176;9.486;2022-08-19T05:52:38;12.33;;;11.83;;
18138;SDS011;9195;53.176;9.486;2022-08-19T05:55:04;12.40;;;11.90;;
18138;SDS011;9195;53.176;9.486;2022-08-19T05:57:30;12.30;;;11.80;;
18138;SDS011;9195;53.176;9.486;2022-08-19T05:59:56;12.67;;;12.17;;
18138;SDS011;9195;53.176;9.486;2022-08-19T06:02:22;12.40;;;11.90;;
18138;SDS011;9195;53.176;9.486;2022-08-19T06:04:48;12.67;;;12.17;;
18138;SDS011;9195;53.176;9.486;2022-08-19T06:07:14;12.67;;;12.17;;
18138;SDS011;9195;53.176;9.486;2022-08-19T06:09:40;12.70;;;12.20;;
18138;SDS011;9195;53.176;9.486;2022-08-19T06:12:06;12.63;;;12.13;;
18138;SDS011;9195;53.176;9.486;2022-08-19T06:14:33;12.57;;;12.07;;
18138;SDS011;9195;53.176;9.486;2022-08-19T06:16:59;12.90;;;12.30;;
18138;SDS011;9195;53.176;9.486;2022-08-19T06:19:27;12.43;;;11.93;;
18138;SDS011;9195;53.176;9.486;2022-08-19T06:21:55;12.63;;;12.13;;
18138;SDS011;9195;53.176;9.486;2022-08-19T06:24:23;12.90;;;12.30;;
18138;SDS011;9195;53.176;9.486;2022-08-19T06:26:51;12.20;;;11.70;;
18138;SDS011;9195;53.176;9.486;2022-08-19T06:29:19;12.30;;;11.80;;
18138;SDS011;9195;53.176;9.486;2022-08-19T06:31:49;12.73;;;12.20;;
18138;SDS011;9195;53.176;9.486;2022-08-19T06:34:17;12.53;;;12.03;;
18138;SDS011;9195;53.176;9.486;2022-08-19T06:36:45;12.40;;;11.90;;
18138;SDS011;9195;53.176;9.486;2022-08-19T06:39:14;11.90;;;11.40;;
18138;SDS011;9195;53.176;9.486;2022-08-19T06:41:45;12.17;;;11.67;;
18138;SDS011;9195;53.176;9.486;2022-08-19T06:44:13;12.27;;;11.77;;
18138;SDS011;9195;53.176;9.486;2022-08-19T06:46:39;12.33;;;11.83;;
18138;SDS011;9195;53.176;9.486;2022-08-19T06:49:06;12.93;;;12.37;;
18138;SDS011;9195;53.176;9.486;2022-08-19T06:51:36;12.93;;;12.33;;
18138;SDS011;9195;53.176;9.486;2022-08-19T06:54:02;12.27;;;11.77;;
18138;SDS011;9195;53.176;9.486;2022-08-19T06:56:29;12.70;;;12.20;;
18138;SDS011;9195;53.176;9.486;2022-08-19T06:58:59;13.17;;;12.57;;
18138;SDS011;9195;53.176;9.486;2022-08-19T07:01:26;13.30;;;12.70;;
18138;SDS011;9195;53.176;9.486;2022-08-19T07:03:52;12.97;;;12.37;;
18138;SDS011;9195;53.176;9.486;2022-08-19T07:06:18;12.30;;;11.80;;
18138;SDS011;9195;53.176;9.486;2022-08-19T07:08:45;12.30;;;11.80;;
18138;SDS011;9195;53.176;9.486;2022-08-19T07:11:12;12.87;;;12.33;;
18138;SDS011;9195;53.176;9.486;2022-08-19T07:13:42;12.53;;;12.03;;
18138;SDS011;9195;53.176;9.486;2022-08-19T07:16:13;12.40;;;11.90;;
18138;SDS011;9195;53.176;9.486;2022-08-19T07:18:40;12.23;;;11.73;;
18138;SDS011;9195;53.176;9.486;2022-08-19T07:21:08;12.53;;;12.03;;
18138;SDS011;9195;53.176;9.486;2022-08-19T07:23:36;13.07;;;12.47;;
18138;SDS011;9195;53.176;9.486;2022-08-19T07:26:12;12.30;;;11.80;;
18138;SDS011;9195;53.176;9.486;2022-08-19T07:28:48;12.83;;;12.33;;
18138;SDS011;9195;53.176;9.486;2022-08-19T07:31:15;12.60;;;12.10;;
18138;SDS011;9195;53.176;9.486;2022-08-19T07:33:43;13.40;;;12.80;;
18138;SDS011;9195;53.176;9.486;2022-08-19T07:36:10;13.10;;;12.50;;
18138;SDS011;9195;53.176;9.486;2022-08-19T07:38:37;12.87;;;12.30;;
18138;SDS011;9195;53.176;9.486;2022-08-19T07:41:04;13.23;;;12.63;;
18138;SDS011;9195;53.176;9.486;2022-08-19T07:43:31;13.70;;;13.10;;
18138;SDS011;9195;53.176;9.486;2022-08-19T07:45:57;13.33;;;12.73;;
18138;SDS011;9195;53.176;9.486;2022-08-19T07:48:23;13.40;;;12.80;;
18138;SDS011;9195;53.176;9.486;2022-08-19T07:50:51;13.37;;;12.77;;
18138;SDS011;9195;53.176;9.486;2022-08-19T07:53:18;13.50;;;12.90;;
18138;SDS011;9195;53.176;9.486;2022-08-19T07:55:44;13.67;;;13.07;;
18138;SDS011;9195;53.176;9.486;2022-08-19T07:58:14;13.40;;;12.80;;
18138;SDS011;9195;53.176;9.486;2022-08-19T08:00:42;13.90;;;13.30;;
18138;SDS011;9195;53.176;9.486;2022-08-19T08:03:10;13.70;;;13.10;;
18138;SDS011;9195;53.176;9.486;2022-08-19T08:05:36;13.20;;;12.60;;
18138;SDS011;9195;53.176;9.486;2022-08-19T08:08:21;13.50;;;12.90;;
18138;SDS011;9195;53.176;9.486;2022-08-19T08:11:05;14.20;;;13.60;;
18138;SDS011;9195;53.176;9.486;2022-08-19T08:13:31;13.50;;;12.90;;
18138;SDS011;9195;53.176;9.486;2022-08-19T08:16:00;13.43;;;12.83;;
18138;SDS011;9195;53.176;9.486;2022-08-19T08:18:26;13.83;;;13.23;;
18138;SDS011;9195;53.176;9.486;2022-08-19T08:20:52;13.43;;;12.83;;
18138;SDS011;9195;53.176;9.486;2022-08-19T08:23:17;14.03;;;13.43;;
18138;SDS011;9195;53.176;9.486;2022-08-19T08:25:55;14.00;;;13.40;;
18138;SDS011;9195;53.176;9.486;2022-08-19T08:28:22;14.23;;;13.63;;
18138;SDS011;9195;53.176;9.486;2022-08-19T08:30:48;13.83;;;13.23;;
18138;SDS011;9195;53.176;9.486;2022-08-19T08:33:21;13.97;;;13.37;;
18138;SDS011;9195;53.176;9.486;2022-08-19T08:35:49;13.40;;;12.80;;
18138;SDS011;9195;53.176;9.486;2022-08-19T08:38:14;13.33;;;12.73;;
18138;SDS011;9195;53.176;9.486;2022-08-19T08:43:29;13.13;;;12.53;;
18138;SDS011;9195;53.176;9.486;2022-08-19T08:46:00;13.47;;;12.87;;
18138;SDS011;9195;53.176;9.486;2022-08-19T08:51:20;13.60;;;13.00;;
18138;SDS011;9195;53.176;9.486;2022-08-19T08:53:51;13.13;;;12.53;;
18138;SDS011;9195;53.176;9.486;2022-08-19T08:56:18;13.57;;;12.97;;
18138;SDS011;9195;53.176;9.486;2022-08-19T09:01:21;13.50;;;12.90;;
18138;SDS011;9195;53.176;9.486;2022-08-19T09:03:47;13.13;;;12.53;;
18138;SDS011;9195;53.176;9.486;2022-08-19T09:06:29;13.10;;;12.50;;
18138;SDS011;9195;53.176;9.486;2022-08-19T09:09:23;13.10;;;12.50;;
18138;SDS011;9195;53.176;9.486;2022-08-19T09:14:44;13.10;;;12.50;;
18138;SDS011;9195;53.176;9.486;2022-08-19T09:17:12;13.63;;;13.03;;
18138;SDS011;9195;53.176;9.486;2022-08-19T09:19:49;13.27;;;12.67;;
18138;SDS011;9195;53.176;9.486;2022-08-19T09:22:39;13.87;;;13.27;;
18138;SDS011;9195;53.176;9.486;2022-08-19T09:25:07;13.20;;;12.60;;
18138;SDS011;9195;53.176;9.486;2022-08-19T09:27:35;13.80;;;13.20;;
18138;SDS011;9195;53.176;9.486;2022-08-19T09:30:03;13.45;;;12.85;;
18138;SDS011;9195;53.176;9.486;2022-08-19T09:32:29;13.50;;;12.90;;
18138;SDS011;9195;53.176;9.486;2022-08-19T09:34:55;13.43;;;12.82;;
18138;SDS011;9195;53.176;9.486;2022-08-19T09:37:22;13.77;;;13.18;;
18138;SDS011;9195;53.176;9.486;2022-08-19T09:39:49;13.90;;;13.30;;
18138;SDS011;9195;53.176;9.486;2022-08-19T09:42:15;13.45;;;12.85;;
18138;SDS011;9195;53.176;9.486;2022-08-19T09:44:41;13.30;;;12.70;;
18138;SDS011;9195;53.176;9.486;2022-08-19T09:47:08;13.85;;;13.25;;
18138;SDS011;9195;53.176;9.486;2022-08-19T09:49:36;14.30;;;13.70;;
18138;SDS011;9195;53.176;9.486;2022-08-19T09:52:03;14.02;;;13.43;;
18138;SDS011;9195;53.176;9.486;2022-08-19T09:54:29;13.70;;;13.10;;
18138;SDS011;9195;53.176;9.486;2022-08-19T09:56:55;14.00;;;13.40;;
18138;SDS011;9195;53.176;9.486;2022-08-19T09:59:25;13.82;;;13.23;;
18138;SDS011;9195;53.176;9.486;2022-08-19T10:01:51;13.73;;;13.13;;
18138;SDS011;9195;53.176;9.486;2022-08-19T10:04:17;14.05;;;13.45;;
18138;SDS011;9195;53.176;9.486;2022-08-19T10:06:44;13.90;;;13.30;;
18138;SDS011;9195;53.176;9.486;2022-08-19T10:09:13;14.25;;;13.65;;
18138;SDS011;9195;53.176;9.486;2022-08-19T10:11:40;14.00;;;13.40;;
18138;SDS011;9195;53.176;9.486;2022-08-19T10:14:07;13.85;;;13.25;;
18138;SDS011;9195;53.176;9.486;2022-08-19T10:16:33;13.82;;;13.23;;
18138;SDS011;9195;53.176;9.486;2022-08-19T10:19:00;13.68;;;13.07;;
18138;SDS011;9195;53.176;9.486;2022-08-19T10:21:27;13.50;;;12.90;;
18138;SDS011;9195;53.176;9.486;2022-08-19T10:23:57;13.85;;;13.25;;
18138;SDS011;9195;53.176;9.486;2022-08-19T10:26:26;14.00;;;13.40;;
18138;SDS011;9195;53.176;9.486;2022-08-19T10:28:56;13.82;;;13.23;;
18138;SDS011;9195;53.176;9.486;2022-08-19T10:31:23;13.85;;;13.25;;
18138;SDS011;9195;53.176;9.486;2022-08-19T10:33:51;13.93;;;13.32;;
18138;SDS011;9195;53.176;9.486;2022-08-19T10:36:22;13.63;;;13.02;;
18138;SDS011;9195;53.176;9.486;2022-08-19T10:39:02;13.90;;;13.30;;
18138;SDS011;9195;53.176;9.486;2022-08-19T10:41:32;14.68;;;14.00;;
18138;SDS011;9195;53.176;9.486;2022-08-19T10:44:03;13.90;;;13.30;;
18138;SDS011;9195;53.176;9.486;2022-08-19T10:46:36;14.27;;;13.68;;
18138;SDS011;9195;53.176;9.486;2022-08-19T10:49:04;14.35;;;13.75;;
18138;SDS011;9195;53.176;9.486;2022-08-19T10:51:30;14.57;;;13.98;;
18138;SDS011;9195;53.176;9.486;2022-08-19T10:54:15;14.38;;;13.77;;
18138;SDS011;9195;53.176;9.486;2022-08-19T10:56:41;14.30;;;13.70;;
18138;SDS011;9195;53.176;9.486;2022-08-19T11:01:49;14.52;;;13.93;;
18138;SDS011;9195;53.176;9.486;2022-08-19T11:04:16;14.50;;;13.90;;
18138;SDS011;9195;53.176;9.486;2022-08-19T11:06:43;14.75;;;14.05;;
18138;SDS011;9195;53.176;9.486;2022-08-19T11:09:12;15.13;;;14.43;;
18138;SDS011;9195;53.176;9.486;2022-08-19T11:11:40;14.43;;;13.82;;
18138;SDS011;9195;53.176;9.486;2022-08-19T11:14:15;15.07;;;14.38;;
18138;SDS011;9195;53.176;9.486;2022-08-19T11:16:46;15.63;;;14.93;;
18138;SDS011;9195;53.176;9.486;2022-08-19T11:19:12;15.30;;;14.60;;
18138;SDS011;9195;53.176;9.486;2022-08-19T11:21:41;15.43;;;14.73;;
18138;SDS011;9195;53.176;9.486;2022-08-19T11:24:11;15.07;;;14.38;;
18138;SDS011;9195;53.176;9.486;2022-08-19T11:26:40;15.20;;;14.50;;
18138;SDS011;9195;53.176;9.486;2022-08-19T11:29:07;15.90;;;15.20;;
18138;SDS011;9195;53.176;9.486;2022-08-19T11:31:38;15.35;;;14.65;;
18138;SDS011;9195;53.176;9.486;2022-08-19T11:34:08;15.48;;;14.77;;
18138;SDS011;9195;53.176;9.486;2022-08-19T11:36:37;15.30;;;14.60;;
18138;SDS011;9195;53.176;9.486;2022-08-19T11:39:04;15.43;;;14.73;;
18138;SDS011;9195;53.176;9.486;2022-08-19T11:41:31;15.48;;;14.77;;
18138;SDS011;9195;53.176;9.486;2022-08-19T11:43:57;15.60;;;14.90;;
18138;SDS011;9195;53.176;9.486;2022-08-19T11:46:23;15.60;;;14.90;;
18138;SDS011;9195;53.176;9.486;2022-08-19T11:48:52;16.15;;;15.45;;
18138;SDS011;9195;53.176;9.486;2022-08-19T11:51:20;15.32;;;14.63;;
18138;SDS011;9195;53.176;9.486;2022-08-19T11:53:47;15.73;;;15.02;;
18138;SDS011;9195;53.176;9.486;2022-08-19T11:56:15;15.25;;;14.55;;
18138;SDS011;9195;53.176;9.486;2022-08-19T11:58:41;15.50;;;14.80;;
18138;SDS011;9195;53.176;9.486;2022-08-19T12:01:10;15.60;;;14.90;;
18138;SDS011;9195;53.176;9.486;2022-08-19T12:03:37;15.52;;;14.82;;
18138;SDS011;9195;53.176;9.486;2022-08-19T12:06:07;15.70;;;15.00;;
18138;SDS011;9195;53.176;9.486;2022-08-19T12:08:34;15.50;;;14.80;;
18138;SDS011;9195;53.176;9.486;2022-08-19T12:11:00;15.75;;;15.05;;
18138;SDS011;9195;53.176;9.486;2022-08-19T12:13:27;17.00;;;16.20;;
18138;SDS011;9195;53.176;9.486;2022-08-19T12:15:53;16.48;;;15.68;;
18138;SDS011;9195;53.176;9.486;2022-08-19T12:18:19;16.42;;;15.73;;
18138;SDS011;9195;53.176;9.486;2022-08-19T12:20:45;16.10;;;15.40;;
18138;SDS011;9195;53.176;9.486;2022-08-19T12:23:11;16.38;;;15.68;;
18138;SDS011;9195;53.176;9.486;2022-08-19T12:25:37;16.08;;;15.38;;
18138;SDS011;9195;53.176;9.486;2022-08-19T12:28:13;15.93;;;15.23;;
18138;SDS011;9195;53.176;9.486;2022-08-19T12:30:38;16.35;;;15.65;;
18138;SDS011;9195;53.176;9.486;2022-08-19T12:33:04;16.42;;;15.73;;
18138;SDS011;9195;53.176;9.486;2022-08-19T12:35:30;17.45;;;16.65;;
18138;SDS011;9195;53.176;9.486;2022-08-19T12:37:55;16.95;;;16.17;;
18138;SDS011;9195;53.176;9.486;2022-08-19T12:40:21;17.15;;;16.35;;
18138;SDS011;9195;53.176;9.486;2022-08-19T12:42:46;17.77;;;16.98;;
18138;SDS011;9195;53.176;9.486;2022-08-19T12:45:14;17.95;;;17.15;;
18138;SDS011;9195;53.176;9.486;2022-08-19T12:47:40;17.75;;;16.95;;
18138;SDS011;9195;53.176;9.486;2022-08-19T12:50:06;17.52;;;16.73;;
18138;SDS011;9195;53.176;9.486;2022-08-19T12:52:33;17.45;;;16.65;;
18138;SDS011;9195;53.176;9.486;2022-08-19T12:55:02;17.42;;;16.63;;
18138;SDS011;9195;53.176;9.486;2022-08-19T12:57:29;16.67;;;15.88;;
18138;SDS011;9195;53.176;9.486;2022-08-19T12:59:58;18.35;;;17.45;;
18138;SDS011;9195;53.176;9.486;2022-08-19T13:02:25;16.77;;;15.98;;
18138;SDS011;9195;53.176;9.486;2022-08-19T13:04:51;17.60;;;16.80;;
18138;SDS011;9195;53.176;9.486;2022-08-19T13:07:16;17.33;;;16.52;;
18138;SDS011;9195;53.176;9.486;2022-08-19T13:09:42;17.70;;;16.90;;
18138;SDS011;9195;53.176;9.486;2022-08-19T13:12:08;18.48;;;17.58;;
18138;SDS011;9195;53.176;9.486;2022-08-19T13:14:37;16.77;;;15.98;;
18138;SDS011;9195;53.176;9.486;2022-08-19T13:17:03;17.90;;;17.10;;
18138;SDS011;9195;53.176;9.486;2022-08-19T13:19:29;18.63;;;17.75;;
18138;SDS011;9195;53.176;9.486;2022-08-19T13:21:56;18.92;;;18.02;;
18138;SDS011;9195;53.176;9.486;2022-08-19T13:24:22;19.98;;;19.08;;
18138;SDS011;9195;53.176;9.486;2022-08-19T13:26:48;18.23;;;17.42;;
18138;SDS011;9195;53.176;9.486;2022-08-19T13:29:14;17.67;;;16.88;;
18138;SDS011;9195;53.176;9.486;2022-08-19T13:31:58;17.75;;;16.95;;
18138;SDS011;9195;53.176;9.486;2022-08-19T13:34:42;18.20;;;17.40;;
18138;SDS011;9195;53.176;9.486;2022-08-19T13:37:08;18.25;;;17.45;;
18138;SDS011;9195;53.176;9.486;2022-08-19T13:39:34;18.88;;;18.02;;
18138;SDS011;9195;53.176;9.486;2022-08-19T13:42:01;18.35;;;17.55;;
18138;SDS011;9195;53.176;9.486;2022-08-19T13:44:29;19.10;;;18.20;;
18138;SDS011;9195;53.176;9.486;2022-08-19T13:46:55;17.65;;;16.85;;
18138;SDS011;9195;53.176;9.486;2022-08-19T13:49:28;16.55;;;15.85;;
18138;SDS011;9195;53.176;9.486;2022-08-19T13:51:55;17.20;;;16.40;;
18138;SDS011;9195;53.176;9.486;2022-08-19T13:54:21;18.40;;;17.60;;
18138;SDS011;9195;53.176;9.486;2022-08-19T13:56:47;19.27;;;18.38;;
18138;SDS011;9195;53.176;9.486;2022-08-19T13:59:12;17.90;;;17.10;;
18138;SDS011;9195;53.176;9.486;2022-08-19T14:01:38;19.38;;;18.48;;
18138;SDS011;9195;53.176;9.486;2022-08-19T14:04:05;19.55;;;18.65;;
18138;SDS011;9195;53.176;9.486;2022-08-19T14:06:31;18.40;;;17.60;;
18138;SDS011;9195;53.176;9.486;2022-08-19T14:08:57;19.02;;;18.13;;
18138;SDS011;9195;53.176;9.486;2022-08-19T14:11:23;20.45;;;19.55;;
18138;SDS011;9195;53.176;9.486;2022-08-19T14:13:49;21.40;;;20.40;;
18138;SDS011;9195;53.176;9.486;2022-08-19T14:16:15;23.95;;;22.85;;
18138;SDS011;9195;53.176;9.486;2022-08-19T14:18:41;22.90;;;21.90;;
18138;SDS011;9195;53.176;9.486;2022-08-19T14:21:07;19.77;;;18.88;;
18138;SDS011;9195;53.176;9.486;2022-08-19T14:23:39;18.73;;;17.83;;
18138;SDS011;9195;53.176;9.486;2022-08-19T14:26:08;17.05;;;16.25;;
18138;SDS011;9195;53.176;9.486;2022-08-19T14:28:36;17.30;;;16.50;;
18138;SDS011;9195;53.176;9.486;2022-08-19T14:31:04;17.40;;;16.60;;
18138;SDS011;9195;53.176;9.486;2022-08-19T14:33:30;16.70;;;15.90;;
18138;SDS011;9195;53.176;9.486;2022-08-19T14:35:55;16.80;;;16.05;;
18138;SDS011;9195;53.176;9.486;2022-08-19T14:38:21;17.35;;;16.55;;
18138;SDS011;9195;53.176;9.486;2022-08-19T14:40:46;19.50;;;18.60;;
18138;SDS011;9195;53.176;9.486;2022-08-19T14:43:13;20.00;;;19.10;;
18138;SDS011;9195;53.176;9.486;2022-08-19T14:45:39;21.15;;;20.17;;
18138;SDS011;9195;53.176;9.486;2022-08-19T14:48:05;23.42;;;22.38;;
18138;SDS011;9195;53.176;9.486;2022-08-19T14:50:32;25.40;;;24.25;;
18138;SDS011;9195;53.176;9.486;2022-08-19T14:53:00;27.55;;;26.35;;
18138;SDS011;9195;53.176;9.486;2022-08-19T14:55:30;28.58;;;27.27;;